sensor_id;sensor_type;location;lat;lon;timestamp;pressure;altitude;pressure_sealevel;temperature;humidity
80837;BME280;70251;60.008;30.404;2024-03-23T00:52:38;98699.47;;;5.90;69.47
80837;BME280;70251;60.008;30.404;2024-03-23T00:55:03;98694.75;;;5.84;69.54
80837;BME280;70251;60.008;30.404;2024-03-23T00:57:29;98683.88;;;5.87;69.59
80837;BME280;70251;60.008;30.404;2024-03-23T00:59:55;98689.00;;;5.88;70.10
80837;BME280;70251;60.008;30.404;2024-03-23T01:02:21;98667.47;;;5.83;69.60
80837;BME280;70251;60.008;30.404;2024-03-23T01:04:46;98682.22;;;5.86;69.65
80837;BME280;70251;60.008;30.404;2024-03-23T01:07:12;98670.56;;;5.79;70.01
80837;BME280;70251;60.008;30.404;2024-03-23T01:09:38;98654.09;;;5.85;69.49
80837;BME280;70251;60.008;30.404;2024-03-23T01:12:04;98649.88;;;5.92;69.33
80837;BME280;70251;60.008;30.404;2024-03-23T01:14:30;98644.28;;;6.03;69.19
80837;BME280;70251;60.008;30.404;2024-03-23T01:16:56;98644.25;;;5.95;69.24
80837;BME280;70251;60.008;30.404;2024-03-23T01:19:21;98650.47;;;5.86;69.29
80837;BME280;70251;60.008;30.404;2024-03-23T01:21:48;98637.69;;;5.81;69.88
80837;BME280;70251;60.008;30.404;2024-03-23T01:24:15;98628.75;;;5.82;69.87
80837;BME280;70251;60.008;30.404;2024-03-23T01:26:41;98642.22;;;5.89;69.30
80837;BME280;70251;60.008;30.404;2024-03-23T01:29:07;98618.72;;;5.86;70.04
80837;BME280;70251;60.008;30.404;2024-03-23T01:31:33;98621.25;;;5.95;69.93
80837;BME280;70251;60.008;30.404;2024-03-23T01:33:59;98608.72;;;6.05;69.14
80837;BME280;70251;60.008;30.404;2024-03-23T01:36:24;98601.63;;;6.06;69.33
80837;BME280;70251;60.008;30.404;2024-03-23T01:38:50;98596.69;;;6.11;69.03
80837;BME280;70251;60.008;30.404;2024-03-23T01:41:17;98597.84;;;6.08;68.88
80837;BME280;70251;60.008;30.404;2024-03-23T01:43:43;98591.16;;;5.96;69.32
80837;BME280;70251;60.008;30.404;2024-03-23T01:46:08;98593.00;;;5.96;70.04
80837;BME280;70251;60.008;30.404;2024-03-23T01:48:34;98578.41;;;5.92;70.04
80837;BME280;70251;60.008;30.404;2024-03-23T01:51:00;98579.91;;;5.94;69.92
80837;BME280;70251;60.008;30.404;2024-03-23T01:53:26;98571.81;;;5.96;69.95
80837;BME280;70251;60.008;30.404;2024-03-23T01:55:52;98559.59;;;6.03;69.52
80837;BME280;70251;60.008;30.404;2024-03-23T01:58:18;98550.34;;;6.07;69.18
80837;BME280;70251;60.008;30.404;2024-03-23T02:01:02;98548.41;;;6.17;69.57
80837;BME280;70251;60.008;30.404;2024-03-23T02:03:28;98548.41;;;6.17;68.92
80837;BME280;70251;60.008;30.404;2024-03-23T02:05:54;98552.69;;;6.10;69.53
80837;BME280;70251;60.008;30.404;2024-03-23T02:08:22;98533.28;;;6.01;69.91
80837;BME280;70251;60.008;30.404;2024-03-23T02:10:48;98534.13;;;6.02;69.77
80837;BME280;70251;60.008;30.404;2024-03-23T02:13:15;98538.13;;;6.06;70.06
80837;BME280;70251;60.008;30.404;2024-03-23T02:15:42;98539.44;;;6.02;69.85
80837;BME280;70251;60.008;30.404;2024-03-23T02:18:27;98543.19;;;5.91;70.32
80837;BME280;70251;60.008;30.404;2024-03-23T02:20:53;98520.16;;;5.84;70.27
80837;BME280;70251;60.008;30.404;2024-03-23T02:23:18;98542.81;;;5.86;70.55
80837;BME280;70251;60.008;30.404;2024-03-23T02:25:44;98527.72;;;5.79;71.24
80837;BME280;70251;60.008;30.404;2024-03-23T02:28:10;98521.41;;;5.80;70.92
80837;BME280;70251;60.008;30.404;2024-03-23T02:30:36;98529.06;;;5.83;71.46
80837;BME280;70251;60.008;30.404;2024-03-23T02:33:03;98520.69;;;5.87;70.48
80837;BME280;70251;60.008;30.404;2024-03-23T02:35:29;98513.19;;;5.83;70.73
80837;BME280;70251;60.008;30.404;2024-03-23T02:37:54;98519.19;;;5.85;71.10
80837;BME280;70251;60.008;30.404;2024-03-23T02:40:23;98510.22;;;5.86;70.95
80837;BME280;70251;60.008;30.404;2024-03-23T02:42:49;98513.81;;;5.77;71.75
80837;BME280;70251;60.008;30.404;2024-03-23T02:45:14;98511.94;;;5.69;72.28
80837;BME280;70251;60.008;30.404;2024-03-23T02:47:40;98499.41;;;5.71;71.82
80837;BME280;70251;60.008;30.404;2024-03-23T02:50:24;98513.28;;;5.73;72.34
80837;BME280;70251;60.008;30.404;2024-03-23T02:52:50;98503.34;;;5.67;71.88
80837;BME280;70251;60.008;30.404;2024-03-23T02:55:16;98494.94;;;5.72;71.77
80837;BME280;70251;60.008;30.404;2024-03-23T02:57:43;98495.31;;;5.77;71.81
80837;BME280;70251;60.008;30.404;2024-03-23T03:00:09;98496.47;;;5.82;71.43
80837;BME280;70251;60.008;30.404;2024-03-23T03:02:36;98492.38;;;5.88;71.37
80837;BME280;70251;60.008;30.404;2024-03-23T03:05:04;98494.13;;;5.79;72.09
80837;BME280;70251;60.008;30.404;2024-03-23T03:07:31;98491.72;;;5.86;72.06
80837;BME280;70251;60.008;30.404;2024-03-23T03:09:56;98482.81;;;5.87;71.80
80837;BME280;70251;60.008;30.404;2024-03-23T03:12:22;98493.22;;;5.88;72.14
80837;BME280;70251;60.008;30.404;2024-03-23T03:14:48;98486.13;;;5.89;71.80
80837;BME280;70251;60.008;30.404;2024-03-23T03:17:14;98491.56;;;5.87;72.37
80837;BME280;70251;60.008;30.404;2024-03-23T03:19:40;98481.78;;;5.88;72.61
80837;BME280;70251;60.008;30.404;2024-03-23T03:22:06;98480.91;;;5.79;73.09
80837;BME280;70251;60.008;30.404;2024-03-23T03:24:31;98488.94;;;5.87;72.36
80837;BME280;70251;60.008;30.404;2024-03-23T03:26:57;98478.69;;;5.92;71.65
80837;BME280;70251;60.008;30.404;2024-03-23T03:29:25;98475.22;;;5.92;72.79
80837;BME280;70251;60.008;30.404;2024-03-23T03:31:51;98484.13;;;5.91;71.82
80837;BME280;70251;60.008;30.404;2024-03-23T03:34:16;98473.56;;;5.91;72.65
80837;BME280;70251;60.008;30.404;2024-03-23T03:36:42;98463.63;;;5.93;71.83
80837;BME280;70251;60.008;30.404;2024-03-23T03:39:08;98465.91;;;5.88;73.02
80837;BME280;70251;60.008;30.404;2024-03-23T03:41:33;98458.59;;;5.82;73.18
80837;BME280;70251;60.008;30.404;2024-03-23T03:43:59;98458.94;;;5.79;72.82
80837;BME280;70251;60.008;30.404;2024-03-23T03:46:30;98450.38;;;5.85;72.83
80837;BME280;70251;60.008;30.404;2024-03-23T03:48:56;98444.41;;;5.83;72.89
80837;BME280;70251;60.008;30.404;2024-03-23T03:51:22;98454.66;;;5.86;72.71
80837;BME280;70251;60.008;30.404;2024-03-23T03:53:47;98444.25;;;5.84;72.25
80837;BME280;70251;60.008;30.404;2024-03-23T03:56:13;98438.97;;;5.84;72.52
80837;BME280;70251;60.008;30.404;2024-03-23T03:58:38;98451.13;;;5.77;73.37
80837;BME280;70251;60.008;30.404;2024-03-23T04:01:05;98437.44;;;5.82;73.02
80837;BME280;70251;60.008;30.404;2024-03-23T04:03:31;98450.66;;;5.82;73.02
80837;BME280;70251;60.008;30.404;2024-03-23T04:05:57;98447.03;;;5.83;73.28
80837;BME280;70251;60.008;30.404;2024-03-23T04:08:24;98441.13;;;5.89;73.05
80837;BME280;70251;60.008;30.404;2024-03-23T04:10:49;98457.50;;;5.84;73.43
80837;BME280;70251;60.008;30.404;2024-03-23T04:13:15;98435.34;;;5.85;73.12
80837;BME280;70251;60.008;30.404;2024-03-23T04:15:42;98444.75;;;5.88;72.81
80837;BME280;70251;60.008;30.404;2024-03-23T04:18:07;98441.75;;;5.83;73.04
80837;BME280;70251;60.008;30.404;2024-03-23T04:20:34;98444.56;;;5.81;73.41
80837;BME280;70251;60.008;30.404;2024-03-23T04:22:59;98438.44;;;5.81;73.36
80837;BME280;70251;60.008;30.404;2024-03-23T04:25:26;98443.72;;;5.81;73.06
80837;BME280;70251;60.008;30.404;2024-03-23T04:27:51;98469.81;;;5.76;74.23
80837;BME280;70251;60.008;30.404;2024-03-23T04:30:17;98456.56;;;5.68;74.16
80837;BME280;70251;60.008;30.404;2024-03-23T04:32:43;98440.34;;;5.63;74.93
80837;BME280;70251;60.008;30.404;2024-03-23T04:35:09;98449.78;;;5.65;74.31
80837;BME280;70251;60.008;30.404;2024-03-23T04:37:36;98447.13;;;5.65;74.30
80837;BME280;70251;60.008;30.404;2024-03-23T04:40:02;98454.41;;;5.63;74.66
80837;BME280;70251;60.008;30.404;2024-03-23T04:42:31;98458.06;;;5.62;74.42
80837;BME280;70251;60.008;30.404;2024-03-23T04:44:57;98457.84;;;5.56;74.94
80837;BME280;70251;60.008;30.404;2024-03-23T04:47:24;98459.84;;;5.54;74.31
80837;BME280;70251;60.008;30.404;2024-03-23T04:49:50;98449.88;;;5.47;74.63
80837;BME280;70251;60.008;30.404;2024-03-23T04:55:01;98468.00;;;5.34;75.57
80837;BME280;70251;60.008;30.404;2024-03-23T04:57:26;98458.41;;;5.33;75.80
80837;BME280;70251;60.008;30.404;2024-03-23T04:59:52;98467.00;;;5.35;75.48
80837;BME280;70251;60.008;30.404;2024-03-23T05:02:20;98474.88;;;5.27;76.03
80837;BME280;70251;60.008;30.404;2024-03-23T05:04:46;98479.16;;;5.28;76.19
80837;BME280;70251;60.008;30.404;2024-03-23T05:07:12;98462.72;;;5.34;76.36
80837;BME280;70251;60.008;30.404;2024-03-23T05:09:38;98479.06;;;5.38;75.69
80837;BME280;70251;60.008;30.404;2024-03-23T05:12:03;98458.63;;;5.48;75.30
80837;BME280;70251;60.008;30.404;2024-03-23T05:14:29;98480.97;;;5.54;75.17
80837;BME280;70251;60.008;30.404;2024-03-23T05:17:05;98470.28;;;5.63;74.92
80837;BME280;70251;60.008;30.404;2024-03-23T05:19:30;98459.38;;;5.66;74.44
80837;BME280;70251;60.008;30.404;2024-03-23T05:21:56;98461.56;;;5.71;75.03
80837;BME280;70251;60.008;30.404;2024-03-23T05:24:22;98458.91;;;5.71;74.53
80837;BME280;70251;60.008;30.404;2024-03-23T05:26:47;98464.19;;;5.71;74.90
80837;BME280;70251;60.008;30.404;2024-03-23T05:29:13;98465.84;;;5.72;74.89
80837;BME280;70251;60.008;30.404;2024-03-23T05:31:39;98466.50;;;5.74;75.32
80837;BME280;70251;60.008;30.404;2024-03-23T05:34:07;98469.31;;;5.72;74.27
80837;BME280;70251;60.008;30.404;2024-03-23T05:36:33;98474.16;;;5.77;75.05
80837;BME280;70251;60.008;30.404;2024-03-23T05:38:59;98467.00;;;5.77;74.64
80837;BME280;70251;60.008;30.404;2024-03-23T05:41:24;98474.16;;;5.77;75.04
80837;BME280;70251;60.008;30.404;2024-03-23T05:43:50;98461.94;;;5.84;74.33
80837;BME280;70251;60.008;30.404;2024-03-23T05:46:15;98465.44;;;5.84;74.60
80837;BME280;70251;60.008;30.404;2024-03-23T05:48:41;98474.56;;;5.90;74.37
80837;BME280;70251;60.008;30.404;2024-03-23T05:51:07;98459.97;;;5.86;74.41
80837;BME280;70251;60.008;30.404;2024-03-23T05:53:33;98466.94;;;5.87;74.31
80837;BME280;70251;60.008;30.404;2024-03-23T05:56:03;98468.06;;;5.84;74.97
80837;BME280;70251;60.008;30.404;2024-03-23T05:58:32;98472.66;;;5.82;75.06
80837;BME280;70251;60.008;30.404;2024-03-23T06:00:59;98483.06;;;5.76;74.85
80837;BME280;70251;60.008;30.404;2024-03-23T06:03:26;98469.00;;;5.75;75.03
80837;BME280;70251;60.008;30.404;2024-03-23T06:05:52;98474.47;;;5.82;75.05
80837;BME280;70251;60.008;30.404;2024-03-23T06:08:21;98466.88;;;5.79;74.72
80837;BME280;70251;60.008;30.404;2024-03-23T06:10:47;98475.31;;;5.82;74.94
80837;BME280;70251;60.008;30.404;2024-03-23T06:13:13;98469.88;;;5.84;75.38
80837;BME280;70251;60.008;30.404;2024-03-23T06:15:39;98470.53;;;5.86;75.00
80837;BME280;70251;60.008;30.404;2024-03-23T06:18:05;98481.97;;;5.86;75.05
80837;BME280;70251;60.008;30.404;2024-03-23T06:20:33;98480.66;;;5.90;74.92
80837;BME280;70251;60.008;30.404;2024-03-23T06:22:59;98476.69;;;5.94;74.54
80837;BME280;70251;60.008;30.404;2024-03-23T06:25:25;98476.50;;;5.88;74.78
80837;BME280;70251;60.008;30.404;2024-03-23T06:27:53;98486.41;;;5.86;74.31
80837;BME280;70251;60.008;30.404;2024-03-23T06:30:19;98488.47;;;5.92;75.24
80837;BME280;70251;60.008;30.404;2024-03-23T06:32:45;98485.13;;;5.90;74.46
80837;BME280;70251;60.008;30.404;2024-03-23T06:35:11;98479.31;;;5.86;74.70
80837;BME280;70251;60.008;30.404;2024-03-23T06:37:36;98478.53;;;5.94;74.64
80837;BME280;70251;60.008;30.404;2024-03-23T06:40:05;98481.84;;;5.96;73.90
80837;BME280;70251;60.008;30.404;2024-03-23T06:42:34;98482.50;;;5.90;74.10
80837;BME280;70251;60.008;30.404;2024-03-23T06:44:59;98485.63;;;5.93;74.62
80837;BME280;70251;60.008;30.404;2024-03-23T06:47:25;98482.84;;;6.03;74.06
80837;BME280;70251;60.008;30.404;2024-03-23T06:49:51;98491.63;;;6.03;73.76
80837;BME280;70251;60.008;30.404;2024-03-23T06:52:17;98490.47;;;5.98;74.23
80837;BME280;70251;60.008;30.404;2024-03-23T06:54:43;98500.84;;;5.91;74.06
80837;BME280;70251;60.008;30.404;2024-03-23T06:57:12;98495.13;;;5.78;74.06
80837;BME280;70251;60.008;30.404;2024-03-23T06:59:46;98490.78;;;5.69;74.36
80837;BME280;70251;60.008;30.404;2024-03-23T07:02:12;98484.34;;;5.64;73.87
80837;BME280;70251;60.008;30.404;2024-03-23T07:04:37;98506.22;;;5.48;75.08
80837;BME280;70251;60.008;30.404;2024-03-23T07:07:05;98521.22;;;5.39;75.28
80837;BME280;70251;60.008;30.404;2024-03-23T07:09:30;98489.75;;;5.28;75.53
80837;BME280;70251;60.008;30.404;2024-03-23T07:11:57;98520.56;;;5.20;75.21
80837;BME280;70251;60.008;30.404;2024-03-23T07:14:23;98510.34;;;5.17;75.46
80837;BME280;70251;60.008;30.404;2024-03-23T07:16:49;98517.19;;;5.27;75.68
80837;BME280;70251;60.008;30.404;2024-03-23T07:19:16;98512.84;;;5.26;74.97
80837;BME280;70251;60.008;30.404;2024-03-23T07:21:45;98494.06;;;5.29;75.53
80837;BME280;70251;60.008;30.404;2024-03-23T07:24:11;98518.53;;;5.31;75.36
80837;BME280;70251;60.008;30.404;2024-03-23T07:26:37;98518.53;;;5.31;74.76
80837;BME280;70251;60.008;30.404;2024-03-23T07:29:06;98512.41;;;5.31;75.09
80837;BME280;70251;60.008;30.404;2024-03-23T07:31:32;98522.47;;;5.27;75.33
80837;BME280;70251;60.008;30.404;2024-03-23T07:33:58;98511.06;;;5.27;75.13
80837;BME280;70251;60.008;30.404;2024-03-23T07:36:30;98512.34;;;5.23;75.01
80837;BME280;70251;60.008;30.404;2024-03-23T07:38:55;98520.28;;;5.23;74.64
80837;BME280;70251;60.008;30.404;2024-03-23T07:41:26;98521.22;;;5.39;75.07
80837;BME280;70251;60.008;30.404;2024-03-23T07:43:53;98517.94;;;5.45;74.30
80837;BME280;70251;60.008;30.404;2024-03-23T07:46:24;98541.00;;;5.35;74.69
80837;BME280;70251;60.008;30.404;2024-03-23T07:48:53;98524.66;;;5.32;74.76
80837;BME280;70251;60.008;30.404;2024-03-23T07:51:23;98537.66;;;5.25;75.02
80837;BME280;70251;60.008;30.404;2024-03-23T07:53:49;98550.69;;;5.27;75.13
80837;BME280;70251;60.008;30.404;2024-03-23T07:56:25;98554.19;;;5.10;75.54
80837;BME280;70251;60.008;30.404;2024-03-23T07:58:58;98586.81;;;5.01;75.54
80837;BME280;70251;60.008;30.404;2024-03-23T08:01:48;98528.19;;;4.97;75.70
80837;BME280;70251;60.008;30.404;2024-03-23T08:09:24;98541.19;;;4.55;76.85
80837;BME280;70251;60.008;30.404;2024-03-23T08:11:53;98564.41;;;4.52;77.07
80837;BME280;70251;60.008;30.404;2024-03-23T08:17:12;98573.69;;;4.56;76.96
80837;BME280;70251;60.008;30.404;2024-03-23T08:19:39;98587.13;;;4.45;77.34
80837;BME280;70251;60.008;30.404;2024-03-23T08:22:09;98549.38;;;4.35;77.88
80837;BME280;70251;60.008;30.404;2024-03-23T08:24:37;98551.41;;;4.23;77.64
80837;BME280;70251;60.008;30.404;2024-03-23T08:27:12;98601.63;;;4.31;77.84
80837;BME280;70251;60.008;30.404;2024-03-23T08:29:50;98579.09;;;4.37;77.53
80837;BME280;70251;60.008;30.404;2024-03-23T08:32:27;98551.66;;;4.30;77.61
80837;BME280;70251;60.008;30.404;2024-03-23T08:35:04;98581.53;;;4.48;77.25
80837;BME280;70251;60.008;30.404;2024-03-23T08:37:30;98556.81;;;4.49;77.27
80837;BME280;70251;60.008;30.404;2024-03-23T08:39:59;98570.97;;;4.48;76.83
80837;BME280;70251;60.008;30.404;2024-03-23T08:42:25;98586.81;;;4.48;76.71
80837;BME280;70251;60.008;30.404;2024-03-23T08:44:55;98576.63;;;4.53;76.45
80837;BME280;70251;60.008;30.404;2024-03-23T08:47:21;98592.63;;;4.51;76.54
80837;BME280;70251;60.008;30.404;2024-03-23T08:49:47;98568.09;;;4.41;76.66
80837;BME280;70251;60.008;30.404;2024-03-23T08:52:16;98591.78;;;4.51;76.00
80837;BME280;70251;60.008;30.404;2024-03-23T08:54:42;98591.94;;;4.67;75.84
80837;BME280;70251;60.008;30.404;2024-03-23T08:57:08;98591.00;;;4.68;75.23
80837;BME280;70251;60.008;30.404;2024-03-23T08:59:37;98591.34;;;4.73;75.14
80837;BME280;70251;60.008;30.404;2024-03-23T09:02:03;98581.38;;;4.67;75.65
80837;BME280;70251;60.008;30.404;2024-03-23T09:04:30;98606.91;;;4.76;75.38
80837;BME280;70251;60.008;30.404;2024-03-23T09:10:47;98606.69;;;4.69;75.62
80837;BME280;70251;60.008;30.404;2024-03-23T09:13:14;98593.75;;;4.49;76.56
80837;BME280;70251;60.008;30.404;2024-03-23T09:15:50;98610.75;;;4.64;76.03
80837;BME280;70251;60.008;30.404;2024-03-23T09:18:17;98603.97;;;4.61;76.68
80837;BME280;70251;60.008;30.404;2024-03-23T09:20:43;98616.75;;;4.56;76.28
80837;BME280;70251;60.008;30.404;2024-03-23T09:23:09;98618.19;;;4.68;76.11
80837;BME280;70251;60.008;30.404;2024-03-23T09:25:40;98609.38;;;4.78;75.73
80837;BME280;70251;60.008;30.404;2024-03-23T09:31:32;98607.75;;;4.77;75.90
80837;BME280;70251;60.008;30.404;2024-03-23T09:34:07;98623.72;;;4.75;75.17
80837;BME280;70251;60.008;30.404;2024-03-23T09:36:42;98627.56;;;4.63;75.10
80837;BME280;70251;60.008;30.404;2024-03-23T09:39:11;98630.00;;;4.74;75.40
80837;BME280;70251;60.008;30.404;2024-03-23T09:41:37;98630.88;;;4.65;75.14
80837;BME280;70251;60.008;30.404;2024-03-23T09:44:03;98636.81;;;4.77;74.73
80837;BME280;70251;60.008;30.404;2024-03-23T09:46:39;98648.44;;;4.56;75.64
80837;BME280;70251;60.008;30.404;2024-03-23T09:49:11;98623.47;;;4.51;75.73
80837;BME280;70251;60.008;30.404;2024-03-23T09:51:56;98627.41;;;4.64;75.26
80837;BME280;70251;60.008;30.404;2024-03-23T09:55:43;98621.69;;;4.69;74.61
80837;BME280;70251;60.008;30.404;2024-03-23T09:58:16;98636.16;;;4.65;74.70
80837;BME280;70251;60.008;30.404;2024-03-23T10:00:47;98641.16;;;4.68;75.02
80837;BME280;70251;60.008;30.404;2024-03-23T10:03:17;98645.16;;;4.72;75.37
80837;BME280;70251;60.008;30.404;2024-03-23T10:06:23;98663.06;;;4.78;74.39
80837;BME280;70251;60.008;30.404;2024-03-23T10:08:52;98659.44;;;4.79;74.46
80837;BME280;70251;60.008;30.404;2024-03-23T10:11:21;98666.09;;;4.83;73.95
80837;BME280;70251;60.008;30.404;2024-03-23T10:13:47;98647.59;;;4.83;73.30
80837;BME280;70251;60.008;30.404;2024-03-23T10:16:23;98652.09;;;4.73;73.77
80837;BME280;70251;60.008;30.404;2024-03-23T10:18:55;98670.56;;;4.73;73.67
80837;BME280;70251;60.008;30.404;2024-03-23T10:21:37;98655.88;;;4.70;72.94
80837;BME280;70251;60.008;30.404;2024-03-23T10:24:32;98675.72;;;4.47;73.39
80837;BME280;70251;60.008;30.404;2024-03-23T10:26:58;98694.16;;;4.57;73.88
80837;BME280;70251;60.008;30.404;2024-03-23T10:29:26;98702.94;;;4.57;74.43
80837;BME280;70251;60.008;30.404;2024-03-23T10:32:09;98674.81;;;4.66;73.17
80837;BME280;70251;60.008;30.404;2024-03-23T10:34:39;98667.84;;;4.65;73.61
80837;BME280;70251;60.008;30.404;2024-03-23T10:37:37;98687.34;;;4.64;73.40
80837;BME280;70251;60.008;30.404;2024-03-23T10:40:51;98675.59;;;4.49;73.90
80837;BME280;70251;60.008;30.404;2024-03-23T10:43:24;98671.38;;;4.56;73.26
80837;BME280;70251;60.008;30.404;2024-03-23T10:45:56;98679.59;;;4.53;73.43
80837;BME280;70251;60.008;30.404;2024-03-23T10:48:23;98691.00;;;4.53;73.84
80837;BME280;70251;60.008;30.404;2024-03-23T10:51:07;98726.53;;;4.59;73.53
80837;BME280;70251;60.008;30.404;2024-03-23T10:53:37;98708.47;;;4.64;73.58
80837;BME280;70251;60.008;30.404;2024-03-23T10:56:04;98692.50;;;4.56;73.00
80837;BME280;70251;60.008;30.404;2024-03-23T10:58:42;98684.72;;;4.54;72.90
80837;BME280;70251;60.008;30.404;2024-03-23T11:01:13;98703.69;;;4.67;73.10
80837;BME280;70251;60.008;30.404;2024-03-23T11:14:22;98690.34;;;4.69;72.85
80837;BME280;70251;60.008;30.404;2024-03-23T11:17:26;98709.03;;;5.03;72.37
80837;BME280;70251;60.008;30.404;2024-03-23T11:20:03;98721.03;;;4.97;71.99
80837;BME280;70251;60.008;30.404;2024-03-23T11:22:44;98697.94;;;4.99;71.97
80837;BME280;70251;60.008;30.404;2024-03-23T11:25:21;98700.28;;;4.85;71.58
80837;BME280;70251;60.008;30.404;2024-03-23T11:27:48;98732.13;;;5.01;71.76
80837;BME280;70251;60.008;30.404;2024-03-23T11:30:18;98737.47;;;5.18;71.17
80837;BME280;70251;60.008;30.404;2024-03-23T11:32:46;98742.47;;;5.21;71.42
80837;BME280;70251;60.008;30.404;2024-03-23T11:35:32;98711.63;;;5.12;70.93
80837;BME280;70251;60.008;30.404;2024-03-23T11:40:32;98727.88;;;5.17;71.06
80837;BME280;70251;60.008;30.404;2024-03-23T11:43:01;98736.31;;;5.03;71.37
80837;BME280;70251;60.008;30.404;2024-03-23T11:45:53;98738.06;;;5.12;71.30
80837;BME280;70251;60.008;30.404;2024-03-23T11:48:50;98740.91;;;5.01;70.59
80837;BME280;70251;60.008;30.404;2024-03-23T11:51:21;98719.03;;;5.09;71.28
80837;BME280;70251;60.008;30.404;2024-03-23T11:54:11;98754.34;;;5.08;70.90
80837;BME280;70251;60.008;30.404;2024-03-23T11:57:04;98730.66;;;4.98;70.23
80837;BME280;70251;60.008;30.404;2024-03-23T11:59:38;98783.59;;;5.06;71.28
80837;BME280;70251;60.008;30.404;2024-03-23T12:02:11;98729.13;;;4.96;71.22
80837;BME280;70251;60.008;30.404;2024-03-23T12:04:38;98738.84;;;4.95;70.87
80837;BME280;70251;60.008;30.404;2024-03-23T12:07:20;98753.16;;;5.02;70.73
80837;BME280;70251;60.008;30.404;2024-03-23T12:10:05;98743.06;;;4.88;71.15
80837;BME280;70251;60.008;30.404;2024-03-23T12:13:04;98756.66;;;4.93;70.46
80837;BME280;70251;60.008;30.404;2024-03-23T12:15:33;98746.03;;;4.76;71.76
80837;BME280;70251;60.008;30.404;2024-03-23T12:18:10;98758.97;;;4.79;71.72
80837;BME280;70251;60.008;30.404;2024-03-23T12:20:39;98775.16;;;4.93;71.16
80837;BME280;70251;60.008;30.404;2024-03-23T12:23:26;98775.44;;;4.90;71.90
80837;BME280;70251;60.008;30.404;2024-03-23T12:26:01;98802.34;;;4.76;72.48
80837;BME280;70251;60.008;30.404;2024-03-23T12:28:27;98777.22;;;4.62;72.53
80837;BME280;70251;60.008;30.404;2024-03-23T12:30:54;98779.84;;;4.72;72.56
80837;BME280;70251;60.008;30.404;2024-03-23T12:33:20;98754.97;;;4.75;72.61
80837;BME280;70251;60.008;30.404;2024-03-23T12:35:53;98776.81;;;4.67;72.17
80837;BME280;70251;60.008;30.404;2024-03-23T12:38:46;98768.28;;;4.73;72.33
80837;BME280;70251;60.008;30.404;2024-03-23T12:41:13;98767.34;;;4.74;72.02
80837;BME280;70251;60.008;30.404;2024-03-23T12:46:43;98759.59;;;4.63;72.13
80837;BME280;70251;60.008;30.404;2024-03-23T12:49:08;98772.88;;;4.71;72.05
80837;BME280;70251;60.008;30.404;2024-03-23T12:51:37;98797.91;;;4.77;71.36
80837;BME280;70251;60.008;30.404;2024-03-23T12:54:03;98795.69;;;4.72;72.23
80837;BME280;70251;60.008;30.404;2024-03-23T12:56:29;98803.38;;;4.65;71.62
80837;BME280;70251;60.008;30.404;2024-03-23T12:58:56;98801.34;;;4.77;71.50
80837;BME280;70251;60.008;30.404;2024-03-23T13:01:23;98805.53;;;4.80;71.77
80837;BME280;70251;60.008;30.404;2024-03-23T13:03:50;98799.19;;;4.63;71.66
80837;BME280;70251;60.008;30.404;2024-03-23T13:06:32;98812.25;;;4.64;72.09
80837;BME280;70251;60.008;30.404;2024-03-23T13:09:17;98819.06;;;4.67;71.32
80837;BME280;70251;60.008;30.404;2024-03-23T13:11:43;98816.00;;;4.71;71.62
80837;BME280;70251;60.008;30.404;2024-03-23T13:14:13;98814.56;;;4.77;71.16
80837;BME280;70251;60.008;30.404;2024-03-23T13:16:42;98821.31;;;4.62;72.07
80837;BME280;70251;60.008;30.404;2024-03-23T13:19:08;98821.00;;;4.65;71.76
80837;BME280;70251;60.008;30.404;2024-03-23T13:21:36;98815.72;;;4.75;71.30
80837;BME280;70251;60.008;30.404;2024-03-23T13:24:06;98807.09;;;4.72;71.89
80837;BME280;70251;60.008;30.404;2024-03-23T13:26:33;98839.59;;;4.83;70.93
80837;BME280;70251;60.008;30.404;2024-03-23T13:28:59;98811.53;;;4.72;70.81
80837;BME280;70251;60.008;30.404;2024-03-23T13:31:25;98778.75;;;4.65;70.95
80837;BME280;70251;60.008;30.404;2024-03-23T13:33:51;98814.34;;;4.70;71.23
80837;BME280;70251;60.008;30.404;2024-03-23T13:36:17;98821.53;;;4.78;70.60
80837;BME280;70251;60.008;30.404;2024-03-23T13:38:48;98828.59;;;4.87;70.55
80837;BME280;70251;60.008;30.404;2024-03-23T13:41:14;98824.13;;;4.88;70.67
80837;BME280;70251;60.008;30.404;2024-03-23T13:43:39;98842.59;;;4.88;70.45
80837;BME280;70251;60.008;30.404;2024-03-23T13:46:06;98829.03;;;4.83;69.80
80837;BME280;70251;60.008;30.404;2024-03-23T13:48:31;98842.38;;;4.81;70.48
80837;BME280;70251;60.008;30.404;2024-03-23T13:51:00;98836.97;;;4.73;70.66
80837;BME280;70251;60.008;30.404;2024-03-23T13:53:27;98847.47;;;4.92;70.09
80837;BME280;70251;60.008;30.404;2024-03-23T13:55:54;98843.31;;;4.90;70.01
80837;BME280;70251;60.008;30.404;2024-03-23T13:58:20;98848.19;;;4.85;70.13
80837;BME280;70251;60.008;30.404;2024-03-23T14:00:45;98848.16;;;4.94;69.94
80837;BME280;70251;60.008;30.404;2024-03-23T14:03:12;98861.06;;;4.97;70.32
80837;BME280;70251;60.008;30.404;2024-03-23T14:05:39;98855.22;;;5.03;70.01
80837;BME280;70251;60.008;30.404;2024-03-23T14:08:08;98845.31;;;5.05;69.74
80837;BME280;70251;60.008;30.404;2024-03-23T14:10:34;98851.53;;;5.14;69.27
80837;BME280;70251;60.008;30.404;2024-03-23T14:13:01;98864.91;;;5.12;68.94
80837;BME280;70251;60.008;30.404;2024-03-23T14:15:29;98858.69;;;5.04;69.42
80837;BME280;70251;60.008;30.404;2024-03-23T14:17:56;98856.56;;;5.07;69.38
80837;BME280;70251;60.008;30.404;2024-03-23T14:20:23;98840.03;;;5.05;68.54
80837;BME280;70251;60.008;30.404;2024-03-23T14:22:49;98862.78;;;5.16;68.19
80837;BME280;70251;60.008;30.404;2024-03-23T14:25:16;98863.63;;;5.16;68.25
80837;BME280;70251;60.008;30.404;2024-03-23T14:27:46;98838.31;;;5.14;68.18
80837;BME280;70251;60.008;30.404;2024-03-23T14:30:13;98859.44;;;5.23;68.23
80837;BME280;70251;60.008;30.404;2024-03-23T14:32:39;98878.91;;;5.22;68.07
80837;BME280;70251;60.008;30.404;2024-03-23T14:35:20;98856.88;;;5.31;67.99
80837;BME280;70251;60.008;30.404;2024-03-23T14:37:46;98869.00;;;5.34;68.45